Time;durP1;ratioP1;P1;durP2;ratioP2;P2;SDS_P1;SDS_P2;PMS_P1;PMS_P2;Temp;Humidity;BMP_temperature;BMP_pressure;BME280_temperature;BME280_humidity;BME280_pressure;Samples;Min_cycle;Max_cycle;Signal;HPM_P1;HPM_P2
2022/10/08 00:01:52;;;;;;;14.20;3.67;;;;;;;13.62;53.75;99784.13;5110883;28;20193;-60
2022/10/08 00:04:18;;;;;;;22.38;3.58;;;;;;;13.60;53.50;99786.88;5110837;28;20082;-60
2022/10/08 00:06:45;;;;;;;9.32;3.05;;;;;;;13.59;53.60;99789.63;5110852;28;20467;-60
2022/10/08 00:09:11;;;;;;;11.02;3.38;;;;;;;13.57;53.64;99781.78;5109435;28;20123;-61
2022/10/08 00:11:39;;;;;;;9.70;2.78;;;;;;;13.55;53.80;99787.22;5110579;28;20043;-63
2022/10/08 00:14:07;;;;;;;13.05;2.92;;;;;;;13.53;54.01;99790.91;5110647;28;20052;-60
2022/10/08 00:16:36;;;;;;;13.75;3.33;;;;;;;13.51;54.23;99784.88;5110782;28;20127;-59
2022/10/08 00:19:12;;;;;;;12.27;2.95;;;;;;;13.49;54.47;99782.31;5109219;28;20105;-61
2022/10/08 00:21:42;;;;;;;11.60;3.10;;;;;;;13.48;53.97;99782.44;5109379;28;20108;-60
2022/10/08 00:24:12;;;;;;;9.80;3.10;;;;;;;13.46;54.47;99785.13;5111036;28;20610;-60
2022/10/08 00:26:40;;;;;;;7.40;2.80;;;;;;;13.46;54.10;99785.13;5110809;28;20082;-60
2022/10/08 00:29:12;;;;;;;10.70;3.05;;;;;;;13.45;54.51;99786.09;5113706;28;20047;-60
2022/10/08 00:31:41;;;;;;;11.98;2.75;;;;;;;13.43;54.43;99785.38;5114235;28;20043;-62
2022/10/08 00:34:10;;;;;;;9.77;2.75;;;;;;;13.41;54.38;99784.63;5112767;28;20480;-56
2022/10/08 00:36:38;;;;;;;9.23;3.00;;;;;;;13.40;54.36;99780.28;5114569;28;20086;-59
2022/10/08 00:39:09;;;;;;;18.38;3.83;;;;;;;13.39;54.29;99781.25;5113765;28;20122;-58
2022/10/08 00:41:37;;;;;;;12.15;2.45;;;;;;;13.39;54.41;99782.06;5112981;28;20086;-57
2022/10/08 00:44:41;;;;;;;9.93;2.97;;;;;;;13.34;55.37;99770.97;5113786;28;20100;-60
2022/10/08 00:47:18;;;;;;;;;;;;;;;13.38;54.79;99767.16;5114256;28;20085;-61
2022/10/08 00:49:48;;;;;;;8.07;2.65;;;;;;;13.43;54.34;99769.50;5113629;28;20363;-58
2022/10/08 00:52:17;;;;;;;9.10;2.97;;;;;;;13.41;54.34;99760.81;5113968;28;20066;-58
2022/10/08 00:54:44;;;;;;;7.32;2.80;;;;;;;13.38;54.38;99761.88;5113668;28;20039;-56
2022/10/08 00:57:11;;;;;;;10.65;2.70;;;;;;;13.37;54.54;99760.19;5113588;28;20510;-61
2022/10/08 00:59:38;;;;;;;9.05;2.90;;;;;;;13.37;54.69;99760.19;5113483;28;20126;-61
2022/10/08 01:02:07;;;;;;;12.40;2.95;;;;;;;13.37;54.71;99760.19;5113352;28;20130;-60
2022/10/08 01:04:36;;;;;;;7.63;2.63;;;;;;;13.36;54.98;99750.56;5113503;28;20480;-60
2022/10/08 01:07:13;;;;;;;13.10;3.30;;;;;;;13.36;55.72;99750.56;5113584;28;20078;-61
2022/10/08 01:09:49;;;;;;;10.70;2.88;;;;;;;13.38;56.27;99750.47;5113422;28;20530;-61
2022/10/08 01:12:24;;;;;;;9.48;2.85;;;;;;;13.43;55.17;99753.66;5113360;28;20063;-59
2022/10/08 01:14:59;;;;;;;10.05;2.83;;;;;;;13.46;55.34;99749.94;5112469;28;20052;-60
2022/10/08 01:17:33;;;;;;;12.45;3.00;;;;;;;13.47;56.13;99751.63;5112083;28;20322;-56
2022/10/08 01:20:00;;;;;;;9.38;2.70;;;;;;;13.54;55.33;99739.72;5111971;28;20096;-60
2022/10/08 01:22:53;;;;;;;10.88;2.60;;;;;;;13.53;56.01;99744.13;5113092;28;20043;-60
2022/10/08 01:25:34;;;;;;;8.57;2.78;;;;;;;13.58;56.24;99740.34;5113279;27;20067;-60
2022/10/08 01:28:11;;;;;;;10.48;3.15;;;;;;;13.63;55.94;99743.50;5113091;28;20507;-59
2022/10/08 01:30:45;;;;;;;11.15;2.90;;;;;;;13.67;55.79;99739.69;5113063;28;20040;-60
2022/10/08 01:33:21;;;;;;;10.20;3.08;;;;;;;13.71;56.00;99751.72;5111589;28;20086;-62
2022/10/08 01:35:53;;;;;;;7.68;2.40;;;;;;;13.75;55.93;99755.84;5112884;28;20051;-60
2022/10/08 01:38:22;;;;;;;9.02;2.92;;;;;;;13.79;55.31;99748.53;5112788;28;20040;-61
2022/10/08 01:40:51;;;;;;;9.15;2.65;;;;;;;13.83;55.12;99746.53;5111982;28;20086;-60
2022/10/08 01:43:22;;;;;;;12.52;3.30;;;;;;;13.84;55.68;99751.72;5111361;28;20086;-61
2022/10/08 01:45:55;;;;;;;9.32;3.00;;;;;;;13.86;55.55;99749.81;5112786;28;20039;-58
2022/10/08 01:48:30;;;;;;;10.85;2.85;;;;;;;13.89;55.53;99754.03;5111313;28;20083;-60
2022/10/08 01:51:05;;;;;;;11.85;2.92;;;;;;;13.91;55.48;99755.59;5111482;28;20051;-60
2022/10/08 01:53:38;;;;;;;10.75;3.03;;;;;;;13.93;55.35;99755.50;5112639;28;20079;-60
2022/10/08 01:56:08;;;;;;;9.52;3.08;;;;;;;13.96;55.18;99749.16;5112506;28;20098;-61
2022/10/08 01:58:48;;;;;;;9.75;3.05;;;;;;;13.94;55.82;99755.41;5112507;28;20479;-60
2022/10/08 02:01:51;;;;;;;10.45;2.70;;;;;;;13.93;55.65;99755.50;5112630;28;20036;-57
2022/10/08 02:04:35;;;;;;;10.93;3.28;;;;;;;13.97;55.04;99753.50;5109602;28;20074;-59
2022/10/08 02:07:13;;;;;;;15.80;3.40;;;;;;;13.93;55.96;99745.78;5112406;28;20039;-58
2022/10/08 02:09:45;;;;;;;8.02;2.63;;;;;;;13.94;55.67;99750.09;5110917;28;20071;-60
2022/10/08 02:12:13;;;;;;;6.25;2.55;;;;;;;13.95;55.05;99756.25;5112319;28;20039;-60
2022/10/08 02:14:44;;;;;;;10.68;2.50;;;;;;;13.92;55.71;99752.03;5110736;28;20479;-59
2022/10/08 02:17:14;;;;;;;10.30;3.05;;;;;;;13.91;55.83;99755.59;5110846;28;20096;-60
2022/10/08 02:20:07;;;;;;;10.27;2.55;;;;;;;13.88;56.09;99755.00;5111951;28;20127;-60
2022/10/08 02:22:44;;;;;;;11.85;2.72;;;;;;;13.93;55.67;99758.16;5110954;28;20079;-59
2022/10/08 02:25:23;;;;;;;10.50;3.03;;;;;;;13.91;56.38;99758.25;5110878;28;20316;-60
2022/10/08 02:28:17;;;;;;;10.95;2.85;;;;;;;13.94;56.34;99767.78;5110971;28;20473;-59
2022/10/08 02:30:52;;;;;;;10.95;2.70;;;;;;;13.97;56.58;99769.38;5111975;28;20059;-60
2022/10/08 02:33:59;;;;;;;9.25;2.97;;;;;;;13.98;56.66;99768.41;5111787;28;20077;-60
2022/10/08 02:36:30;;;;;;;5.75;2.17;;;;;;;14.05;56.13;99772.31;5098746;28;20146;-61
2022/10/08 02:39:02;;;;;;;9.25;2.22;;;;;;;14.08;56.35;99764.16;5111647;28;20537;-59
2022/10/08 02:41:39;;;;;;;12.25;2.83;;;;;;;14.12;56.71;99770.91;5111882;28;20479;-59
2022/10/08 02:44:11;;;;;;;7.75;2.38;;;;;;;14.16;56.65;99764.44;5112038;28;20043;-62
2022/10/08 02:46:41;;;;;;;9.85;2.47;;;;;;;14.23;56.21;99769.28;5110561;28;20040;-60
2022/10/08 02:49:10;;;;;;;9.45;2.58;;;;;;;14.25;56.80;99760.31;5110081;28;20131;-60
2022/10/08 02:51:40;;;;;;;9.13;2.67;;;;;;;14.29;56.59;99761.78;5111477;28;20082;-58
2022/10/08 02:54:07;;;;;;;9.55;2.65;;;;;;;14.34;56.28;99764.06;5110185;28;20043;-60
2022/10/08 02:57:00;;;;;;;8.13;2.22;;;;;;;14.36;57.27;99761.31;5110034;28;20092;-61
2022/10/08 02:59:32;;;;;;;8.30;2.53;;;;;;;14.44;56.29;99765.06;5092192;28;20055;-60
2022/10/08 03:02:01;;;;;;;11.77;2.60;;;;;;;14.48;56.64;99754.25;5111595;28;20088;-59
2022/10/08 03:04:37;;;;;;;10.20;2.38;;;;;;;14.49;57.10;99767.41;5110164;28;20043;-62
2022/10/08 03:07:05;;;;;;;11.38;2.35;;;;;;;14.53;56.40;99763.56;5111323;28;20102;-62
2022/10/08 03:09:46;;;;;;;8.85;2.13;;;;;;;14.52;57.71;99772.47;5109866;28;20039;-60
2022/10/08 03:12:13;;;;;;;10.18;2.45;;;;;;;14.57;56.35;99758.88;5111127;28;20043;-57
2022/10/08 03:14:46;;;;;;;13.57;3.05;;;;;;;14.57;57.33;99766.81;5111244;28;20039;-58
2022/10/08 03:17:37;;;;;;;10.70;2.30;;;;;;;14.59;57.36;99776.34;5111276;28;20055;-60
2022/10/08 03:20:05;;;;;;;10.52;2.67;;;;;;;14.63;56.88;99773.47;5110622;28;20104;-60
2022/10/08 03:22:33;;;;;;;11.18;2.50;;;;;;;14.64;56.67;99776.03;5109942;28;20134;-57
2022/10/08 03:24:59;;;;;;;8.65;3.17;;;;;;;14.65;56.72;99775.06;5111354;28;20100;-59
2022/10/08 03:27:26;;;;;;;7.25;2.72;;;;;;;14.65;56.75;99785.66;5111150;28;20086;-57
2022/10/08 03:29:56;;;;;;;11.40;2.45;;;;;;;14.66;56.99;99800.59;5110652;28;20539;-60
2022/10/08 03:32:26;;;;;;;9.10;2.88;;;;;;;14.66;57.76;99807.69;5111494;28;20047;-60
2022/10/08 03:34:53;;;;;;;8.00;2.35;;;;;;;14.68;57.03;99809.28;5110107;28;20086;-59
2022/10/08 03:37:20;;;;;;;7.85;2.50;;;;;;;14.68;57.03;99790.72;5111397;28;20079;-60
2022/10/08 03:39:46;;;;;;;9.77;3.50;;;;;;;14.66;57.36;99803.22;5110766;28;20090;-60
2022/10/08 03:42:13;;;;;;;7.00;2.67;;;;;;;14.66;57.56;99799.75;5110809;28;20040;-63
2022/10/08 03:44:39;;;;;;;10.60;3.42;;;;;;;14.65;57.52;99800.72;5111098;28;20100;-59
2022/10/08 03:47:06;;;;;;;9.13;2.58;;;;;;;14.65;57.72;99798.06;5110847;28;20039;-59
2022/10/08 03:49:33;;;;;;;6.50;2.47;;;;;;;14.63;57.67;99792.88;5110440;28;20081;-60
2022/10/08 03:51:59;;;;;;;7.65;2.85;;;;;;;14.62;57.91;99793.84;5110963;28;20631;-60
2022/10/08 03:54:26;;;;;;;8.20;3.20;;;;;;;14.60;58.00;99795.75;5110878;28;20423;-59
2022/10/08 03:56:52;;;;;;;6.30;2.70;;;;;;;14.59;58.09;99789.59;5110695;28;20043;-60
2022/10/08 03:59:19;;;;;;;8.68;3.10;;;;;;;14.56;58.54;99792.50;5110999;28;20127;-60
2022/10/08 04:01:45;;;;;;;11.70;3.47;;;;;;;14.54;58.55;99794.38;5110897;28;20075;-61
2022/10/08 04:04:12;;;;;;;8.27;3.22;;;;;;;14.53;58.74;99792.69;5114188;28;20402;-60
2022/10/08 04:06:38;;;;;;;8.15;2.80;;;;;;;14.53;58.94;99797.16;5114864;28;20047;-60
2022/10/08 04:09:05;;;;;;;13.38;3.75;;;;;;;14.53;58.88;99791.84;5114494;28;20040;-59
2022/10/08 04:11:31;;;;;;;7.45;3.10;;;;;;;14.50;59.20;99784.97;5114508;28;20086;-61
2022/10/08 04:13:59;;;;;;;7.10;2.92;;;;;;;14.49;59.29;99777.13;5114596;28;20086;-59
2022/10/08 04:16:26;;;;;;;9.60;3.17;;;;;;;14.48;59.28;99786.03;5114679;28;20050;-60
2022/10/08 04:18:52;;;;;;;11.40;3.35;;;;;;;14.45;59.22;99790.63;5114162;28;20044;-60
2022/10/08 04:21:19;;;;;;;10.82;3.55;;;;;;;14.44;59.37;99790.72;5114406;28;20126;-59
2022/10/08 04:23:48;;;;;;;11.95;3.28;;;;;;;14.41;59.50;99778.56;5114551;28;20557;-60
2022/10/08 04:26:16;;;;;;;8.38;3.05;;;;;;;14.41;59.61;99781.22;5114372;28;20471;-59
2022/10/08 04:28:43;;;;;;;10.23;3.53;;;;;;;14.40;59.80;99783.97;5114034;28;20085;-59
2022/10/08 04:31:15;;;;;;;7.32;3.08;;;;;;;14.38;60.10;99781.44;5113130;28;20507;-59
2022/10/08 04:33:43;;;;;;;9.60;3.30;;;;;;;14.37;60.06;99774.44;5114368;28;20085;-62
2022/10/08 04:36:12;;;;;;;7.72;3.20;;;;;;;14.36;60.44;99770.13;5112925;28;20092;-58
2022/10/08 04:38:40;;;;;;;8.45;3.13;;;;;;;14.38;60.13;99762.03;5112838;28;20079;-60
2022/10/08 04:41:12;;;;;;;9.43;3.78;;;;;;;14.38;60.47;99769.97;5112797;28;20090;-60
2022/10/08 04:43:40;;;;;;;11.65;3.45;;;;;;;14.39;60.40;99780.47;5114264;28;20146;-60
2022/10/08 04:46:09;;;;;;;10.45;3.10;;;;;;;14.39;60.41;99782.28;5113805;28;20112;-61
2022/10/08 04:48:36;;;;;;;6.78;3.50;;;;;;;14.40;60.36;99776.03;5113627;28;21965;-61
2022/10/08 04:51:04;;;;;;;9.23;3.50;;;;;;;14.40;60.57;99786.63;5113550;28;20484;-61
2022/10/08 04:53:36;;;;;;;11.32;3.83;;;;;;;14.40;60.49;99792.78;5112855;28;20395;-59
2022/10/08 04:56:16;;;;;;;10.55;3.85;;;;;;;14.36;62.29;99803.69;5113783;28;20134;-57
2022/10/08 04:58:44;;;;;;;9.27;3.95;;;;;;;14.40;60.82;99791.91;5113822;28;20093;-60
2022/10/08 05:01:13;;;;;;;9.40;3.83;;;;;;;14.39;61.16;99798.16;5112269;28;20647;-59
2022/10/08 05:03:42;;;;;;;9.98;4.00;;;;;;;14.39;61.55;99806.94;5112360;28;20092;-59
2022/10/08 05:06:10;;;;;;;12.00;4.68;;;;;;;14.40;61.24;99811.31;5112390;28;20082;-58
2022/10/08 05:08:36;;;;;;;9.98;4.30;;;;;;;14.41;61.21;99815.63;5113366;28;20079;-59
2022/10/08 05:11:03;;;;;;;7.97;3.92;;;;;;;14.43;61.33;99815.53;5113661;28;20464;-61
2022/10/08 05:13:30;;;;;;;11.00;4.38;;;;;;;14.45;61.26;99813.59;5113282;28;20051;-59
2022/10/08 05:16:04;;;;;;;11.38;4.25;;;;;;;14.42;62.75;99816.47;5113219;28;20122;-59
2022/10/08 05:18:33;;;;;;;9.25;4.32;;;;;;;14.45;61.48;99825.06;5113459;28;20075;-60
2022/10/08 05:21:10;;;;;;;9.40;3.95;;;;;;;14.42;62.76;99822.63;5113098;28;20499;-61
2022/10/08 05:23:37;;;;;;;14.18;5.07;;;;;;;14.46;61.42;99826.75;5113276;28;20079;-59
2022/10/08 05:26:31;;;;;;;12.27;4.82;;;;;;;14.42;62.69;99830.56;5111746;28;20047;-61
2022/10/08 05:29:18;;;;;;;12.05;3.70;;;;;;;14.48;61.31;99833.72;5112981;28;20050;-60
2022/10/08 05:31:45;;;;;;;8.65;4.30;;;;;;;14.46;61.48;99842.63;5113113;28;20043;-59
2022/10/08 05:34:12;;;;;;;10.45;4.65;;;;;;;14.46;61.72;99839.13;5112955;28;20203;-61
2022/10/08 05:36:39;;;;;;;10.30;4.10;;;;;;;14.45;61.75;99840.94;5111538;28;20116;-57
2022/10/08 05:39:06;;;;;;;11.50;4.75;;;;;;;14.46;61.88;99852.38;5111340;28;20449;-59
2022/10/08 05:41:36;;;;;;;10.00;4.85;;;;;;;14.46;62.29;99857.66;5112905;28;20044;-59
2022/10/08 05:44:04;;;;;;;8.35;4.60;;;;;;;14.46;62.28;99861.16;5111765;28;20387;-59
2022/10/08 05:46:33;;;;;;;9.88;5.05;;;;;;;14.48;62.20;99862.84;5111535;28;20052;-60
2022/10/08 05:49:01;;;;;;;10.25;4.57;;;;;;;14.46;62.32;99861.16;5112127;28;20472;-62
2022/10/08 05:51:29;;;;;;;12.23;4.40;;;;;;;14.48;62.03;99869.00;5112762;28;20082;-61
2022/10/08 05:53:57;;;;;;;9.57;4.95;;;;;;;14.48;62.45;99869.00;5112774;28;20460;-58
2022/10/08 05:56:25;;;;;;;9.98;4.80;;;;;;;14.49;62.52;99875.13;5112460;28;20079;-59
2022/10/08 05:58:53;;;;;;;9.07;5.05;;;;;;;14.50;62.38;99874.19;5112487;28;20047;-59
2022/10/08 06:01:23;;;;;;;9.63;5.07;;;;;;;14.50;62.58;99879.50;5111049;28;20406;-59
2022/10/08 06:03:54;;;;;;;10.00;5.50;;;;;;;14.51;62.40;99873.25;5112428;28;20105;-60
2022/10/08 06:06:22;;;;;;;12.13;5.38;;;;;;;14.51;62.29;99868.81;5112219;28;20086;-59
2022/10/08 06:08:53;;;;;;;9.05;5.15;;;;;;;14.50;63.30;99875.03;5111910;28;20137;-60
2022/10/08 06:11:20;;;;;;;10.75;5.13;;;;;;;14.51;62.38;99873.25;5112287;28;20044;-60
2022/10/08 06:13:51;;;;;;;10.73;5.68;;;;;;;14.49;63.24;99876.00;5112418;28;20047;-59
2022/10/08 06:16:17;;;;;;;16.10;5.90;;;;;;;14.51;62.35;99878.53;5112249;28;20047;-59
2022/10/08 06:18:44;;;;;;;13.55;5.63;;;;;;;14.50;62.44;99885.63;5111825;28;20039;-62
2022/10/08 06:21:13;;;;;;;13.27;5.50;;;;;;;14.47;62.80;99885.88;5111934;28;20143;-59
2022/10/08 06:23:46;;;;;;;10.00;5.60;;;;;;;14.44;63.52;99897.50;5111945;28;20430;-58
2022/10/08 06:26:13;;;;;;;10.93;5.63;;;;;;;14.45;62.43;99898.34;5111407;28;20047;-60
2022/10/08 06:28:40;;;;;;;11.07;5.60;;;;;;;14.44;62.52;99913.38;5110729;28;20128;-60
2022/10/08 06:31:07;;;;;;;12.85;5.65;;;;;;;14.42;62.52;99910.00;5111588;28;20102;-62
2022/10/08 06:33:34;;;;;;;10.07;6.53;;;;;;;14.42;62.79;99910.00;5112051;28;20047;-58
2022/10/08 06:36:03;;;;;;;12.77;5.93;;;;;;;14.40;63.52;99914.59;5111982;28;20104;-57
2022/10/08 06:38:30;;;;;;;12.95;6.07;;;;;;;14.42;63.03;99911.81;5111554;28;20047;-56
2022/10/08 06:40:57;;;;;;;10.23;5.45;;;;;;;14.42;62.96;99917.09;5111631;28;20075;-56
2022/10/08 06:43:23;;;;;;;10.77;6.20;;;;;;;14.44;63.22;99928.44;5111648;28;20487;-57
2022/10/08 06:45:52;;;;;;;11.27;6.13;;;;;;;14.46;63.32;99929.16;5111486;28;20071;-58
2022/10/08 06:48:18;;;;;;;14.05;6.03;;;;;;;14.49;63.35;99936.06;5110228;28;20088;-58
2022/10/08 06:50:45;;;;;;;13.70;6.60;;;;;;;14.51;63.32;99940.31;5111198;28;20440;-56
2022/10/08 06:53:11;;;;;;;16.33;6.43;;;;;;;14.53;63.37;99941.03;5111548;28;20134;-57
2022/10/08 06:55:38;;;;;;;7.97;5.50;;;;;;;14.56;63.41;99935.53;5111608;28;20134;-56
2022/10/08 06:58:05;;;;;;;12.90;7.28;;;;;;;14.59;63.61;99955.66;5111293;28;20097;-59
2022/10/08 07:00:32;;;;;;;9.30;6.05;;;;;;;14.61;63.39;99951.09;5109965;28;20166;-58
2022/10/08 07:02:58;;;;;;;9.90;6.32;;;;;;;14.64;63.32;99952.66;5111550;28;20107;-55
2022/10/08 07:05:25;;;;;;;12.95;6.88;;;;;;;14.66;63.48;99964.00;5111423;28;20494;-54
2022/10/08 07:07:51;;;;;;;15.65;6.63;;;;;;;14.70;63.34;99965.50;5111161;28;20051;-58
2022/10/08 07:10:18;;;;;;;11.30;6.00;;;;;;;14.71;63.14;99968.03;5111113;28;20085;-58
2022/10/08 07:12:44;;;;;;;13.07;6.40;;;;;;;14.72;63.19;99975.03;5111248;28;20060;-57
2022/10/08 07:15:11;;;;;;;10.57;6.13;;;;;;;14.73;62.97;99979.34;5111180;28;20071;-58
2022/10/08 07:17:38;;;;;;;10.98;6.47;;;;;;;14.75;63.06;99978.41;5111006;28;20517;-56
2022/10/08 07:20:05;;;;;;;14.43;6.47;;;;;;;14.75;63.25;99992.50;5111055;28;20095;-57
2022/10/08 07:22:32;;;;;;;11.05;6.30;;;;;;;14.77;63.19;99981.81;5109714;28;20104;-60
2022/10/08 07:25:00;;;;;;;11.23;6.25;;;;;;;14.77;63.22;99982.66;5110909;28;20134;-58
2022/10/08 07:27:27;;;;;;;10.55;5.78;;;;;;;14.79;63.22;99978.13;5110957;28;20052;-61
2022/10/08 07:29:53;;;;;;;10.10;5.97;;;;;;;14.83;63.35;99992.84;5111018;28;20116;-58
2022/10/08 07:32:20;;;;;;;15.38;6.03;;;;;;;14.86;63.40;99997.06;5111119;28;20036;-58
2022/10/08 07:34:46;;;;;;;14.18;6.57;;;;;;;14.89;63.25;99999.50;5111171;28;20048;-60
2022/10/08 07:37:13;;;;;;;10.23;6.32;;;;;;;14.93;63.27;100000.13;5111117;28;20097;-59
2022/10/08 07:39:39;;;;;;;10.60;5.97;;;;;;;14.96;63.26;100008.69;5115085;28;20468;-57
2022/10/08 07:42:06;;;;;;;10.02;5.95;;;;;;;15.01;63.32;100015.47;5115044;28;20048;-61
2022/10/08 07:44:33;;;;;;;15.55;5.80;;;;;;;15.05;63.55;100022.25;5115265;28;20165;-58
2022/10/08 07:46:59;;;;;;;15.10;6.20;;;;;;;15.10;63.62;100020.09;5115206;28;20368;-60
2022/10/08 07:49:26;;;;;;;11.15;6.13;;;;;;;15.16;63.41;100025.00;5114921;28;20112;-58
2022/10/08 07:51:53;;;;;;;11.00;6.03;;;;;;;15.21;63.33;100040.53;5114851;28;20109;-61
2022/10/08 07:54:19;;;;;;;14.07;6.68;;;;;;;15.26;63.51;100027.81;5114874;28;20085;-58
2022/10/08 07:56:46;;;;;;;12.68;6.53;;;;;;;15.32;63.66;100032.69;5114740;28;20135;-60
2022/10/08 07:59:14;;;;;;;8.63;5.35;;;;;;;15.37;63.68;100027.03;5114801;27;20051;-61
2022/10/08 08:01:42;;;;;;;8.45;5.10;;;;;;;15.43;63.06;100037.19;5114764;28;20130;-60
2022/10/08 08:04:10;;;;;;;10.52;5.00;;;;;;;15.46;63.03;100034.31;5114739;28;20130;-63
2022/10/08 08:06:39;;;;;;;12.82;5.82;;;;;;;15.48;63.07;100043.00;5113405;28;20043;-60
2022/10/08 08:09:06;;;;;;;9.70;5.15;;;;;;;15.54;62.84;100043.50;5114371;28;20078;-59
2022/10/08 08:11:33;;;;;;;8.73;5.00;;;;;;;15.57;62.77;100059.22;5114495;28;20139;-59
2022/10/08 08:14:00;;;;;;;11.90;5.50;;;;;;;15.60;62.76;100051.03;5114564;28;20086;-59
2022/10/08 08:16:28;;;;;;;9.10;4.82;;;;;;;15.62;62.60;100057.06;5114593;28;20126;-54
2022/10/08 08:18:57;;;;;;;9.27;5.47;;;;;;;15.66;62.74;100055.06;5114452;28;20043;-55
2022/10/08 08:21:29;;;;;;;11.70;5.35;;;;;;;15.69;63.06;100057.44;5114260;28;20535;-58
2022/10/08 08:24:01;;;;;;;8.30;4.78;;;;;;;15.76;62.94;100066.66;5113243;28;20083;-55
2022/10/08 08:26:34;;;;;;;10.32;5.00;;;;;;;15.81;62.96;100069.81;5113318;28;20083;-59
2022/10/08 08:29:04;;;;;;;12.50;5.50;;;;;;;15.86;62.63;100069.50;5114426;28;20369;-58
2022/10/08 08:31:33;;;;;;;10.98;4.93;;;;;;;15.90;62.51;100071.78;5114192;28;20452;-61
2022/10/08 08:34:06;;;;;;;10.93;5.00;;;;;;;15.96;62.59;100075.00;5114434;28;20183;-62
2022/10/08 08:36:36;;;;;;;12.75;4.72;;;;;;;16.00;62.29;100076.47;5114364;28;20082;-57
2022/10/08 08:39:04;;;;;;;8.20;4.57;;;;;;;16.05;62.05;100084.06;5114230;28;20127;-61
2022/10/08 08:41:33;;;;;;;7.95;4.65;;;;;;;16.07;62.34;100085.66;5112934;28;20052;-62
2022/10/08 08:44:17;;;;;;;10.75;4.43;;;;;;;16.09;62.55;100091.69;5113997;28;20048;-60
2022/10/08 08:46:46;;;;;;;;;;;;;;;16.17;62.21;100099.09;5114643;28;20079;-60
2022/10/08 08:49:24;;;;;;;7.40;3.35;;;;;;;16.25;61.72;100104.66;5111990;28;19949;-60
2022/10/08 08:51:52;;;;;;;7.63;3.47;;;;;;;16.28;61.51;100101.78;5113765;28;20090;-60
2022/10/08 08:54:19;;;;;;;9.90;3.80;;;;;;;16.32;61.67;100099.72;5113800;28;20551;-58
2022/10/08 08:56:47;;;;;;;11.85;3.45;;;;;;;16.38;61.77;100095.78;5113936;28;20460;-62
2022/10/08 08:59:14;;;;;;;11.05;4.05;;;;;;;16.45;61.48;100104.94;5112105;28;20069;-60
2022/10/08 09:01:46;;;;;;;13.82;3.95;;;;;;;16.50;61.55;100097.50;5113634;28;20131;-59
2022/10/08 09:04:32;;;;;;;8.73;2.85;;;;;;;16.57;60.13;100103.19;5113774;28;20043;-58
2022/10/08 09:07:03;;;;;;;10.25;3.03;;;;;;;16.63;60.16;100107.19;5112588;28;20046;-60
2022/10/08 09:09:38;;;;;;;9.95;3.25;;;;;;;16.61;60.09;100117.94;5111920;28;20097;-58
2022/10/08 09:12:13;;;;;;;9.43;2.47;;;;;;;16.61;59.71;100117.94;5113742;28;20127;-58
2022/10/08 09:14:53;;;;;;;10.45;2.67;;;;;;;16.63;59.59;100118.66;5113600;28;20109;-60
2022/10/08 09:17:39;;;;;;;8.60;3.15;;;;;;;16.58;59.66;100120.81;5113340;28;20051;-59
2022/10/08 09:20:07;;;;;;;7.35;2.85;;;;;;;16.64;59.74;100130.13;5112019;28;20108;-62
2022/10/08 09:22:39;;;;;;;8.95;2.40;;;;;;;16.65;59.66;100137.13;5113328;28;20055;-59
2022/10/08 09:25:24;;;;;;;7.60;2.40;;;;;;;16.68;59.75;100144.88;5113011;28;20130;-60
2022/10/08 09:28:04;;;;;;;12.00;2.80;;;;;;;16.71;59.12;100136.66;5113102;28;20039;-60
2022/10/08 09:30:34;;;;;;;9.95;2.38;;;;;;;16.77;58.75;100136.19;5111749;28;20043;-57
2022/10/08 09:33:23;;;;;;;21.05;2.83;;;;;;;16.76;58.76;100149.59;5113342;28;20046;-55
2022/10/08 09:35:52;;;;;;;8.25;2.20;;;;;;;16.75;59.04;100146.09;5113019;28;20044;-57
2022/10/08 09:38:23;;;;;;;6.00;2.28;;;;;;;16.74;59.49;100152.38;5112921;28;20324;-58
2022/10/08 09:41:10;;;;;;;7.07;2.33;;;;;;;16.75;59.57;100154.06;5113284;28;20073;-58
2022/10/08 09:43:37;;;;;;;7.38;2.30;;;;;;;16.86;59.50;100141.78;5111436;28;20047;-60
2022/10/08 09:46:25;;;;;;;7.22;2.00;;;;;;;16.90;59.72;100156.53;5112799;28;20094;-59
2022/10/08 09:48:52;;;;;;;8.65;1.92;;;;;;;16.99;59.24;100153.13;5112477;28;20084;-58
2022/10/08 09:51:19;;;;;;;10.15;2.50;;;;;;;17.06;59.02;100148.22;5112754;28;20097;-59
2022/10/08 09:53:50;;;;;;;6.15;1.90;;;;;;;17.14;58.95;100150.25;5112791;28;20104;-60
2022/10/08 09:56:26;;;;;;;4.68;1.73;;;;;;;17.24;59.02;100158.38;5111486;28;20487;-60
2022/10/08 09:58:55;;;;;;;8.20;1.63;;;;;;;17.37;58.94;100158.25;5112428;28;20176;-59
2022/10/08 10:01:23;;;;;;;8.70;2.35;;;;;;;17.48;58.36;100160.03;5111976;28;20040;-62
2022/10/08 10:03:55;;;;;;;9.68;2.20;;;;;;;17.55;57.30;100164.78;5112568;28;20046;-67
2022/10/08 10:06:33;;;;;;;4.60;1.25;;;;;;;17.63;56.40;100176.59;5112405;28;20068;-59
2022/10/08 10:09:24;;;;;;;9.75;1.70;;;;;;;17.62;54.08;100177.56;5111084;28;20502;-62
2022/10/08 10:12:20;;;;;;;6.05;1.55;;;;;;;17.54;54.74;100178.19;5112048;28;20092;-61
2022/10/08 10:15:27;;;;;;;6.45;1.25;;;;;;;17.40;54.33;100176.63;5107409;28;20127;-57
2022/10/08 10:17:59;;;;;;;5.45;1.27;;;;;;;17.32;53.98;100167.44;5091287;28;20043;-60
2022/10/08 10:20:35;;;;;;;4.13;1.20;;;;;;;17.28;55.26;100170.47;5111880;28;20428;-60
2022/10/08 10:23:11;;;;;;;3.80;1.00;;;;;;;17.21;54.38;100175.44;5112200;28;20075;-60
2022/10/08 10:25:38;;;;;;;5.13;1.55;;;;;;;17.25;55.00;100174.22;5110738;28;20479;-59
2022/10/08 10:28:15;;;;;;;5.15;1.42;;;;;;;17.27;54.65;100182.09;5111839;28;20463;-60
2022/10/08 10:31:04;;;;;;;5.20;1.63;;;;;;;17.31;53.43;100179.03;5111802;28;20047;-59
2022/10/08 10:33:36;;;;;;;5.70;1.45;;;;;;;17.46;54.59;100192.13;5110648;28;20052;-58
2022/10/08 10:36:08;;;;;;;4.78;1.48;;;;;;;17.56;53.74;100181.56;5112045;28;20051;-59
2022/10/08 10:38:41;;;;;;;3.77;1.30;;;;;;;17.67;53.70;100178.91;5110762;28;20131;-60
2022/10/08 10:41:20;;;;;;;3.97;1.13;;;;;;;17.80;53.51;100192.06;5110520;28;20044;-59
2022/10/08 10:43:51;;;;;;;4.20;1.42;;;;;;;17.95;52.91;100183.81;5112007;28;20048;-61
2022/10/08 10:46:27;;;;;;;6.50;1.38;;;;;;;18.05;53.18;100197.25;5111669;28;20047;-59
2022/10/08 10:48:55;;;;;;;3.30;1.20;;;;;;;18.15;52.29;100202.66;5110269;28;20043;-58
2022/10/08 10:51:46;;;;;;;3.95;1.20;;;;;;;18.15;50.92;100197.34;5111773;28;20480;-59
2022/10/08 10:54:39;;;;;;;7.65;1.60;;;;;;;18.06;48.57;100191.75;5111445;28;20048;-59
2022/10/08 10:57:23;;;;;;;5.43;1.70;;;;;;;18.03;50.69;100193.84;5092514;28;20089;-60
2022/10/08 10:59:59;;;;;;;6.10;1.63;;;;;;;18.01;50.76;100191.28;5111131;28;20104;-59
2022/10/08 11:02:29;;;;;;;3.97;1.15;;;;;;;18.04;51.13;100191.06;5111647;28;20083;-60
2022/10/08 11:05:16;;;;;;;5.78;1.48;;;;;;;18.04;49.65;100199.03;5111662;28;20039;-59
2022/10/08 11:08:05;;;;;;;5.78;1.15;;;;;;;18.12;50.25;100202.94;5111459;28;20046;-59
2022/10/08 11:10:41;;;;;;;3.28;0.90;;;;;;;18.24;50.62;100188.59;5111206;28;20087;-59
2022/10/08 11:13:23;;;;;;;5.38;1.13;;;;;;;18.53;51.87;100201.31;5109821;28;20069;-59
2022/10/08 11:15:55;;;;;;;4.72;1.30;;;;;;;19.02;54.16;100190.97;5111332;28;20087;-60
2022/10/08 11:18:40;;;;;;;6.20;1.00;;;;;;;19.58;52.63;100190.66;5109775;28;20479;-59
2022/10/08 11:21:38;;;;;;;4.20;1.10;;;;;;;20.12;47.48;100200.25;5111255;28;20079;-58
2022/10/08 11:24:07;;;;;;;4.20;0.95;;;;;;;20.48;48.21;100205.88;5111148;28;20044;-60
2022/10/08 11:26:54;;;;;;;2.95;0.95;;;;;;;20.51;46.33;100207.41;5111164;28;20104;-60
2022/10/08 11:29:59;;;;;;;7.25;1.25;;;;;;;20.45;45.18;100203.50;5111355;28;20073;-59
2022/10/08 11:32:28;;;;;;;4.55;1.38;;;;;;;20.35;45.21;100203.50;5111410;28;20116;-61
2022/10/08 11:35:22;;;;;;;5.13;1.55;;;;;;;20.03;43.58;100192.06;5111008;28;20052;-59
2022/10/08 11:38:08;;;;;;;5.15;1.58;;;;;;;19.81;44.87;100200.31;5111466;28;20438;-57
2022/10/08 11:40:53;;;;;;;3.67;1.40;;;;;;;19.57;46.15;100199.66;5111343;28;20108;-59
2022/10/08 11:43:42;;;;;;;4.80;1.10;;;;;;;19.46;46.40;100191.75;5111051;28;20104;-59
2022/10/08 11:46:18;;;;;;;4.15;1.15;;;;;;;19.52;48.09;100199.22;5111125;28;20130;-59
2022/10/08 11:48:46;;;;;;;6.47;1.13;;;;;;;19.71;49.60;100190.44;5110992;28;20105;-60
2022/10/08 11:51:40;;;;;;;4.35;1.08;;;;;;;19.97;47.36;100205.97;5109603;28;20086;-59